weather.gov     
National Weather Service

Terminal Aerodrome Forecast
NWS Homepage
This page is being discontinued on March 12, 2014.
The same data is available at this site. Please update your bookmarks.
Thank you, and we apologize for the inconvenience.
Please send an email to SR-SRH.Webmaster@noaa.gov with any concerns.


Current Version
Previous Version:    01  02  03  04  05  06  07  08  09  10  11  12  13  14  15  16  17  18  19  20  21  22  23  24  25  26  27  28  29  30  
   31  32  33  34  35  36  37  
[Printable]
523
FTUS43 KGRB 282100 AAB
TAFMTW
TAF AMD
KMTW 282138Z 2822/2918 17010KT 6SM -SN BR SCT015 OVC035
      TEMPO 2822/2824 4SM -SN OVC015
     FM290000 15006KT 6SM -SN BR SCT017 OVC030
      TEMPO 2900/2903 1 1/2SM -FZDZSN OVC017
     FM290300 17005KT 5SM -FZDZSN BR OVC015
     FM290600 16004KT 3SM BR OVC012
     FM290800 16004KT 2SM BR OVC009
     FM291600 17007KT 3SM BR BKN010 BKN040=


U.S. Dept. of Commerce
NOAA National Weather Service
1325 East West Highway
Silver Spring, MD 20910
E-mail: w-nws.webmaster@noaa.gov
Page last modified: May 16, 2007
NATIONAL WEATHER SERVICE: for Safety, for Work, for Fun - FOR LIFE